sensor_id;sensor_type;location;lat;lon;timestamp;temperature;humidity
10314;DHT22;5202;49.138;10.090;2022-07-29T00:01:20;20.90;73.30
10314;DHT22;5202;49.138;10.090;2022-07-29T00:03:54;20.90;73.30
10314;DHT22;5202;49.138;10.090;2022-07-29T00:06:22;20.90;73.20
10314;DHT22;5202;49.138;10.090;2022-07-29T00:08:53;20.90;73.40
10314;DHT22;5202;49.138;10.090;2022-07-29T00:11:22;20.90;73.60
10314;DHT22;5202;49.138;10.090;2022-07-29T00:13:51;21.00;73.60
10314;DHT22;5202;49.138;10.090;2022-07-29T00:16:19;21.00;73.60
10314;DHT22;5202;49.138;10.090;2022-07-29T00:18:48;21.00;73.40
10314;DHT22;5202;49.138;10.090;2022-07-29T00:21:16;21.00;73.90
10314;DHT22;5202;49.138;10.090;2022-07-29T00:23:44;21.00;74.30
10314;DHT22;5202;49.138;10.090;2022-07-29T00:26:13;20.90;74.60
10314;DHT22;5202;49.138;10.090;2022-07-29T00:28:41;20.70;74.50
10314;DHT22;5202;49.138;10.090;2022-07-29T00:31:10;20.60;74.70
10314;DHT22;5202;49.138;10.090;2022-07-29T00:33:39;20.50;75.70
10314;DHT22;5202;49.138;10.090;2022-07-29T00:36:07;20.40;76.00
10314;DHT22;5202;49.138;10.090;2022-07-29T00:38:34;20.30;76.60
10314;DHT22;5202;49.138;10.090;2022-07-29T00:41:02;20.40;76.60
10314;DHT22;5202;49.138;10.090;2022-07-29T00:43:31;20.40;76.70
10314;DHT22;5202;49.138;10.090;2022-07-29T00:45:59;20.30;76.40
10314;DHT22;5202;49.138;10.090;2022-07-29T00:48:30;20.10;76.90
10314;DHT22;5202;49.138;10.090;2022-07-29T00:51:00;20.10;77.20
10314;DHT22;5202;49.138;10.090;2022-07-29T00:53:31;20.00;77.70
10314;DHT22;5202;49.138;10.090;2022-07-29T00:55:59;19.90;77.90
10314;DHT22;5202;49.138;10.090;2022-07-29T00:58:28;19.90;78.20
10314;DHT22;5202;49.138;10.090;2022-07-29T01:00:57;19.80;78.60
10314;DHT22;5202;49.138;10.090;2022-07-29T01:03:26;19.70;78.50
10314;DHT22;5202;49.138;10.090;2022-07-29T01:05:55;19.60;78.60
10314;DHT22;5202;49.138;10.090;2022-07-29T01:08:24;19.50;79.10
10314;DHT22;5202;49.138;10.090;2022-07-29T01:10:53;19.40;79.20
10314;DHT22;5202;49.138;10.090;2022-07-29T01:13:22;19.40;79.50
10314;DHT22;5202;49.138;10.090;2022-07-29T01:15:55;19.30;79.80
10314;DHT22;5202;49.138;10.090;2022-07-29T01:18:31;19.30;80.00
10314;DHT22;5202;49.138;10.090;2022-07-29T01:21:24;19.20;80.10
10314;DHT22;5202;49.138;10.090;2022-07-29T01:24:14;19.20;80.70
10314;DHT22;5202;49.138;10.090;2022-07-29T01:27:22;19.10;81.20
10314;DHT22;5202;49.138;10.090;2022-07-29T01:30:00;19.00;81.50
10314;DHT22;5202;49.138;10.090;2022-07-29T01:32:33;18.90;81.80
10314;DHT22;5202;49.138;10.090;2022-07-29T01:35:07;18.80;82.40
10314;DHT22;5202;49.138;10.090;2022-07-29T01:37:45;18.70;83.00
10314;DHT22;5202;49.138;10.090;2022-07-29T01:40:20;18.70;83.50
10314;DHT22;5202;49.138;10.090;2022-07-29T01:42:55;18.50;84.00
10314;DHT22;5202;49.138;10.090;2022-07-29T01:45:30;18.50;84.70
10314;DHT22;5202;49.138;10.090;2022-07-29T01:48:10;18.40;84.40
10314;DHT22;5202;49.138;10.090;2022-07-29T01:50:46;18.30;84.30
10314;DHT22;5202;49.138;10.090;2022-07-29T01:53:23;18.10;85.40
10314;DHT22;5202;49.138;10.090;2022-07-29T01:56:04;18.10;85.50
10314;DHT22;5202;49.138;10.090;2022-07-29T01:58:35;18.10;85.80
10314;DHT22;5202;49.138;10.090;2022-07-29T02:01:08;18.10;85.70
10314;DHT22;5202;49.138;10.090;2022-07-29T02:03:43;18.00;85.70
10314;DHT22;5202;49.138;10.090;2022-07-29T02:06:19;18.00;85.60
10314;DHT22;5202;49.138;10.090;2022-07-29T02:08:50;18.10;85.50
10314;DHT22;5202;49.138;10.090;2022-07-29T02:11:19;18.00;86.10
10314;DHT22;5202;49.138;10.090;2022-07-29T02:13:49;17.80;85.80
10314;DHT22;5202;49.138;10.090;2022-07-29T02:16:21;17.80;86.30
10314;DHT22;5202;49.138;10.090;2022-07-29T02:18:53;17.80;86.30
10314;DHT22;5202;49.138;10.090;2022-07-29T02:21:24;17.80;86.60
10314;DHT22;5202;49.138;10.090;2022-07-29T02:23:56;17.70;86.80
10314;DHT22;5202;49.138;10.090;2022-07-29T02:26:28;17.70;87.10
10314;DHT22;5202;49.138;10.090;2022-07-29T02:28:58;17.60;87.60
10314;DHT22;5202;49.138;10.090;2022-07-29T02:31:31;17.50;87.80
10314;DHT22;5202;49.138;10.090;2022-07-29T02:34:02;17.40;88.30
10314;DHT22;5202;49.138;10.090;2022-07-29T02:36:32;17.40;88.90
10314;DHT22;5202;49.138;10.090;2022-07-29T02:39:02;17.40;89.30
10314;DHT22;5202;49.138;10.090;2022-07-29T02:41:35;17.40;89.60
10314;DHT22;5202;49.138;10.090;2022-07-29T02:44:11;17.40;89.90
10314;DHT22;5202;49.138;10.090;2022-07-29T02:46:48;17.30;90.00
10314;DHT22;5202;49.138;10.090;2022-07-29T02:49:29;17.30;90.00
10314;DHT22;5202;49.138;10.090;2022-07-29T02:52:03;17.30;90.10
10314;DHT22;5202;49.138;10.090;2022-07-29T02:54:39;17.20;90.20
10314;DHT22;5202;49.138;10.090;2022-07-29T02:57:14;17.10;90.30
10314;DHT22;5202;49.138;10.090;2022-07-29T02:59:48;17.20;90.50
10314;DHT22;5202;49.138;10.090;2022-07-29T03:02:20;17.10;90.90
10314;DHT22;5202;49.138;10.090;2022-07-29T03:04:51;17.00;90.90
10314;DHT22;5202;49.138;10.090;2022-07-29T03:07:21;17.00;90.80
10314;DHT22;5202;49.138;10.090;2022-07-29T03:09:50;17.00;91.10
10314;DHT22;5202;49.138;10.090;2022-07-29T03:12:20;16.90;91.40
10314;DHT22;5202;49.138;10.090;2022-07-29T03:14:48;16.90;91.40
10314;DHT22;5202;49.138;10.090;2022-07-29T03:17:17;16.70;91.40
10314;DHT22;5202;49.138;10.090;2022-07-29T03:19:47;16.80;91.70
10314;DHT22;5202;49.138;10.090;2022-07-29T03:22:16;16.70;92.10
10314;DHT22;5202;49.138;10.090;2022-07-29T03:24:45;16.70;92.00
10314;DHT22;5202;49.138;10.090;2022-07-29T03:27:13;16.60;92.50
10314;DHT22;5202;49.138;10.090;2022-07-29T03:29:42;16.60;92.60
10314;DHT22;5202;49.138;10.090;2022-07-29T03:32:16;16.70;92.80
10314;DHT22;5202;49.138;10.090;2022-07-29T03:34:52;16.70;92.70
10314;DHT22;5202;49.138;10.090;2022-07-29T03:37:20;16.80;92.80
10314;DHT22;5202;49.138;10.090;2022-07-29T03:39:51;16.80;92.90
10314;DHT22;5202;49.138;10.090;2022-07-29T03:42:24;16.80;93.10
10314;DHT22;5202;49.138;10.090;2022-07-29T03:45:03;16.80;93.20
10314;DHT22;5202;49.138;10.090;2022-07-29T03:47:36;16.80;93.10
10314;DHT22;5202;49.138;10.090;2022-07-29T03:50:20;16.80;93.10
10314;DHT22;5202;49.138;10.090;2022-07-29T03:52:49;16.80;93.20
10314;DHT22;5202;49.138;10.090;2022-07-29T03:55:17;16.80;93.20
10314;DHT22;5202;49.138;10.090;2022-07-29T03:57:46;16.70;93.00
10314;DHT22;5202;49.138;10.090;2022-07-29T04:00:16;16.60;93.20
10314;DHT22;5202;49.138;10.090;2022-07-29T04:02:46;16.50;93.30
10314;DHT22;5202;49.138;10.090;2022-07-29T04:05:24;16.50;93.40
10314;DHT22;5202;49.138;10.090;2022-07-29T04:07:52;16.30;93.40
10314;DHT22;5202;49.138;10.090;2022-07-29T04:10:20;16.40;93.60
10314;DHT22;5202;49.138;10.090;2022-07-29T04:12:58;16.40;93.80
10314;DHT22;5202;49.138;10.090;2022-07-29T04:15:26;16.40;93.90
10314;DHT22;5202;49.138;10.090;2022-07-29T04:17:57;16.40;93.80
10314;DHT22;5202;49.138;10.090;2022-07-29T04:20:27;16.40;94.00
10314;DHT22;5202;49.138;10.090;2022-07-29T04:22:55;16.40;94.40
10314;DHT22;5202;49.138;10.090;2022-07-29T04:25:24;16.50;95.20
10314;DHT22;5202;49.138;10.090;2022-07-29T04:27:52;16.60;95.40
10314;DHT22;5202;49.138;10.090;2022-07-29T04:30:31;16.70;95.30
10314;DHT22;5202;49.138;10.090;2022-07-29T04:33:00;16.80;95.80
10314;DHT22;5202;49.138;10.090;2022-07-29T04:35:34;16.80;95.50
10314;DHT22;5202;49.138;10.090;2022-07-29T04:38:15;16.90;95.40
10314;DHT22;5202;49.138;10.090;2022-07-29T04:40:43;17.10;95.40
10314;DHT22;5202;49.138;10.090;2022-07-29T04:43:15;17.20;96.00
10314;DHT22;5202;49.138;10.090;2022-07-29T04:45:49;17.30;96.80
10314;DHT22;5202;49.138;10.090;2022-07-29T04:48:18;17.40;97.10
10314;DHT22;5202;49.138;10.090;2022-07-29T04:50:55;17.40;97.00
10314;DHT22;5202;49.138;10.090;2022-07-29T04:53:24;17.60;96.70
10314;DHT22;5202;49.138;10.090;2022-07-29T04:55:53;17.60;96.80
10314;DHT22;5202;49.138;10.090;2022-07-29T04:58:21;17.70;96.70
10314;DHT22;5202;49.138;10.090;2022-07-29T05:00:50;17.80;96.70
10314;DHT22;5202;49.138;10.090;2022-07-29T05:03:19;17.80;96.60
10314;DHT22;5202;49.138;10.090;2022-07-29T05:05:47;17.80;96.40
10314;DHT22;5202;49.138;10.090;2022-07-29T05:08:17;17.90;96.30
10314;DHT22;5202;49.138;10.090;2022-07-29T05:10:45;18.10;96.10
10314;DHT22;5202;49.138;10.090;2022-07-29T05:13:13;18.10;95.90
10314;DHT22;5202;49.138;10.090;2022-07-29T05:15:42;18.20;96.00
10314;DHT22;5202;49.138;10.090;2022-07-29T05:18:11;18.20;95.80
10314;DHT22;5202;49.138;10.090;2022-07-29T05:20:40;18.30;96.00
10314;DHT22;5202;49.138;10.090;2022-07-29T05:23:08;18.30;95.80
10314;DHT22;5202;49.138;10.090;2022-07-29T05:25:41;18.40;95.80
10314;DHT22;5202;49.138;10.090;2022-07-29T05:28:11;18.50;95.60
10314;DHT22;5202;49.138;10.090;2022-07-29T05:30:39;18.50;95.40
10314;DHT22;5202;49.138;10.090;2022-07-29T05:33:08;18.50;95.30
10314;DHT22;5202;49.138;10.090;2022-07-29T05:35:56;18.50;95.20
10314;DHT22;5202;49.138;10.090;2022-07-29T05:38:26;18.60;95.30
10314;DHT22;5202;49.138;10.090;2022-07-29T05:40:58;18.50;95.40
10314;DHT22;5202;49.138;10.090;2022-07-29T05:43:27;18.40;95.80
10314;DHT22;5202;49.138;10.090;2022-07-29T05:45:56;18.30;96.40
10314;DHT22;5202;49.138;10.090;2022-07-29T05:48:24;18.30;96.40
10314;DHT22;5202;49.138;10.090;2022-07-29T05:50:53;18.40;96.40
10314;DHT22;5202;49.138;10.090;2022-07-29T05:53:22;18.50;96.10
10314;DHT22;5202;49.138;10.090;2022-07-29T05:55:50;18.70;96.20
10314;DHT22;5202;49.138;10.090;2022-07-29T05:58:20;18.90;96.10
10314;DHT22;5202;49.138;10.090;2022-07-29T06:00:49;19.10;95.90
10314;DHT22;5202;49.138;10.090;2022-07-29T06:03:17;19.30;95.70
10314;DHT22;5202;49.138;10.090;2022-07-29T06:05:45;19.30;95.50
10314;DHT22;5202;49.138;10.090;2022-07-29T06:08:13;19.40;95.50
10314;DHT22;5202;49.138;10.090;2022-07-29T06:10:42;19.60;95.60
10314;DHT22;5202;49.138;10.090;2022-07-29T06:13:11;19.70;95.20
10314;DHT22;5202;49.138;10.090;2022-07-29T06:15:41;19.90;94.80
10314;DHT22;5202;49.138;10.090;2022-07-29T06:18:12;20.10;94.50
10314;DHT22;5202;49.138;10.090;2022-07-29T06:20:40;20.20;93.50
10314;DHT22;5202;49.138;10.090;2022-07-29T06:23:09;20.40;93.10
10314;DHT22;5202;49.138;10.090;2022-07-29T06:25:37;20.50;92.70
10314;DHT22;5202;49.138;10.090;2022-07-29T06:28:07;20.60;92.50
10314;DHT22;5202;49.138;10.090;2022-07-29T06:30:36;20.70;92.40
10314;DHT22;5202;49.138;10.090;2022-07-29T06:33:05;20.90;92.00
10314;DHT22;5202;49.138;10.090;2022-07-29T06:35:34;21.00;92.00
10314;DHT22;5202;49.138;10.090;2022-07-29T06:38:08;21.20;91.70
10314;DHT22;5202;49.138;10.090;2022-07-29T06:40:57;21.30;91.30
10314;DHT22;5202;49.138;10.090;2022-07-29T06:43:32;21.40;91.10
10314;DHT22;5202;49.138;10.090;2022-07-29T06:46:17;21.30;91.30
10314;DHT22;5202;49.138;10.090;2022-07-29T06:48:49;21.40;91.20
10314;DHT22;5202;49.138;10.090;2022-07-29T06:51:19;21.60;91.40
10314;DHT22;5202;49.138;10.090;2022-07-29T06:53:50;21.80;91.40
10314;DHT22;5202;49.138;10.090;2022-07-29T06:56:29;21.90;90.80
10314;DHT22;5202;49.138;10.090;2022-07-29T06:59:05;22.10;90.40
10314;DHT22;5202;49.138;10.090;2022-07-29T07:01:35;22.10;90.10
10314;DHT22;5202;49.138;10.090;2022-07-29T07:04:05;22.10;90.10
10314;DHT22;5202;49.138;10.090;2022-07-29T07:06:35;22.10;90.20
10314;DHT22;5202;49.138;10.090;2022-07-29T07:09:04;21.90;90.20
10314;DHT22;5202;49.138;10.090;2022-07-29T07:11:33;21.90;90.80
10314;DHT22;5202;49.138;10.090;2022-07-29T07:14:05;21.90;90.70
10314;DHT22;5202;49.138;10.090;2022-07-29T07:16:34;22.10;90.40
10314;DHT22;5202;49.138;10.090;2022-07-29T07:19:03;22.20;90.20
10314;DHT22;5202;49.138;10.090;2022-07-29T07:21:33;22.50;90.10
10314;DHT22;5202;49.138;10.090;2022-07-29T07:24:03;22.60;89.20
10314;DHT22;5202;49.138;10.090;2022-07-29T07:26:31;22.80;88.80
10314;DHT22;5202;49.138;10.090;2022-07-29T07:29:00;23.00;87.60
10314;DHT22;5202;49.138;10.090;2022-07-29T07:31:28;23.10;86.80
10314;DHT22;5202;49.138;10.090;2022-07-29T07:33:57;23.20;87.20
10314;DHT22;5202;49.138;10.090;2022-07-29T07:36:27;23.30;86.70
10314;DHT22;5202;49.138;10.090;2022-07-29T07:38:55;23.50;86.40
10314;DHT22;5202;49.138;10.090;2022-07-29T07:41:24;23.60;84.90
10314;DHT22;5202;49.138;10.090;2022-07-29T07:43:58;23.90;85.70
10314;DHT22;5202;49.138;10.090;2022-07-29T07:46:26;24.10;84.60
10314;DHT22;5202;49.138;10.090;2022-07-29T07:48:55;24.40;83.80
10314;DHT22;5202;49.138;10.090;2022-07-29T07:51:23;24.50;83.50
10314;DHT22;5202;49.138;10.090;2022-07-29T07:53:53;24.60;81.20
10314;DHT22;5202;49.138;10.090;2022-07-29T07:56:23;24.60;81.90
10314;DHT22;5202;49.138;10.090;2022-07-29T07:58:51;24.70;81.20
10314;DHT22;5202;49.138;10.090;2022-07-29T08:01:19;24.60;80.60
10314;DHT22;5202;49.138;10.090;2022-07-29T08:03:54;24.60;80.40
10314;DHT22;5202;49.138;10.090;2022-07-29T08:06:23;24.60;80.40
10314;DHT22;5202;49.138;10.090;2022-07-29T08:08:53;24.70;80.10
10314;DHT22;5202;49.138;10.090;2022-07-29T08:11:22;24.80;78.20
10314;DHT22;5202;49.138;10.090;2022-07-29T08:13:51;24.80;79.50
10314;DHT22;5202;49.138;10.090;2022-07-29T08:16:19;24.90;78.20
10314;DHT22;5202;49.138;10.090;2022-07-29T08:18:47;24.90;77.90
10314;DHT22;5202;49.138;10.090;2022-07-29T08:21:16;24.80;76.10
10314;DHT22;5202;49.138;10.090;2022-07-29T08:23:44;24.60;75.70
10314;DHT22;5202;49.138;10.090;2022-07-29T08:26:25;24.40;75.60
10314;DHT22;5202;49.138;10.090;2022-07-29T08:28:54;24.50;75.20
10314;DHT22;5202;49.138;10.090;2022-07-29T08:31:22;24.60;74.60
10314;DHT22;5202;49.138;10.090;2022-07-29T08:33:50;24.80;73.90
10314;DHT22;5202;49.138;10.090;2022-07-29T08:36:19;25.00;74.70
10314;DHT22;5202;49.138;10.090;2022-07-29T08:38:48;25.20;74.10
10314;DHT22;5202;49.138;10.090;2022-07-29T08:41:18;25.10;74.00
10314;DHT22;5202;49.138;10.090;2022-07-29T08:43:48;24.80;73.30
10314;DHT22;5202;49.138;10.090;2022-07-29T08:46:18;24.60;73.90
10314;DHT22;5202;49.138;10.090;2022-07-29T08:48:47;24.60;74.40
10314;DHT22;5202;49.138;10.090;2022-07-29T08:51:17;24.60;75.50
10314;DHT22;5202;49.138;10.090;2022-07-29T08:53:49;24.60;75.80
10314;DHT22;5202;49.138;10.090;2022-07-29T08:56:19;24.60;76.10
10314;DHT22;5202;49.138;10.090;2022-07-29T08:58:49;24.70;76.00
10314;DHT22;5202;49.138;10.090;2022-07-29T09:01:23;24.80;76.10
10314;DHT22;5202;49.138;10.090;2022-07-29T09:04:04;24.90;76.00
10314;DHT22;5202;49.138;10.090;2022-07-29T09:06:37;25.00;76.00
10314;DHT22;5202;49.138;10.090;2022-07-29T09:09:08;25.20;75.90
10314;DHT22;5202;49.138;10.090;2022-07-29T09:11:37;25.40;75.70
10314;DHT22;5202;49.138;10.090;2022-07-29T09:14:07;25.60;76.00
10314;DHT22;5202;49.138;10.090;2022-07-29T09:16:54;25.40;74.20
10314;DHT22;5202;49.138;10.090;2022-07-29T09:19:26;25.30;74.90
10314;DHT22;5202;49.138;10.090;2022-07-29T09:21:57;25.20;75.00
10314;DHT22;5202;49.138;10.090;2022-07-29T09:24:26;25.20;74.90
10314;DHT22;5202;49.138;10.090;2022-07-29T09:27:09;25.20;74.90
10314;DHT22;5202;49.138;10.090;2022-07-29T09:29:40;25.30;74.80
10314;DHT22;5202;49.138;10.090;2022-07-29T09:32:10;25.30;74.90
10314;DHT22;5202;49.138;10.090;2022-07-29T09:34:38;25.20;75.00
10314;DHT22;5202;49.138;10.090;2022-07-29T09:37:06;25.20;74.60
10314;DHT22;5202;49.138;10.090;2022-07-29T09:39:37;25.20;74.00
10314;DHT22;5202;49.138;10.090;2022-07-29T09:42:12;25.20;74.10
10314;DHT22;5202;49.138;10.090;2022-07-29T09:44:46;25.20;74.20
10314;DHT22;5202;49.138;10.090;2022-07-29T09:47:17;25.50;75.50
10314;DHT22;5202;49.138;10.090;2022-07-29T09:49:53;25.70;74.30
10314;DHT22;5202;49.138;10.090;2022-07-29T09:52:24;26.00;73.40
10314;DHT22;5202;49.138;10.090;2022-07-29T09:55:04;26.10;71.80
10314;DHT22;5202;49.138;10.090;2022-07-29T09:57:33;26.00;71.80
10314;DHT22;5202;49.138;10.090;2022-07-29T10:00:05;26.00;72.80
10314;DHT22;5202;49.138;10.090;2022-07-29T10:02:42;26.50;73.50
10314;DHT22;5202;49.138;10.090;2022-07-29T10:05:19;26.80;71.90
10314;DHT22;5202;49.138;10.090;2022-07-29T10:07:50;27.00;71.60
10314;DHT22;5202;49.138;10.090;2022-07-29T10:10:26;27.10;72.40
10314;DHT22;5202;49.138;10.090;2022-07-29T10:12:56;26.90;68.50
10314;DHT22;5202;49.138;10.090;2022-07-29T10:15:36;26.50;69.80
10314;DHT22;5202;49.138;10.090;2022-07-29T10:18:08;26.20;71.10
10314;DHT22;5202;49.138;10.090;2022-07-29T10:20:37;26.00;71.80
10314;DHT22;5202;49.138;10.090;2022-07-29T10:23:05;26.00;72.40
10314;DHT22;5202;49.138;10.090;2022-07-29T10:25:34;26.20;72.60
10314;DHT22;5202;49.138;10.090;2022-07-29T10:28:02;26.20;71.40
10314;DHT22;5202;49.138;10.090;2022-07-29T10:30:31;26.00;72.40
10314;DHT22;5202;49.138;10.090;2022-07-29T10:33:21;25.90;72.50
10314;DHT22;5202;49.138;10.090;2022-07-29T10:36:09;26.10;73.30
10314;DHT22;5202;49.138;10.090;2022-07-29T10:38:55;26.20;72.10
10314;DHT22;5202;49.138;10.090;2022-07-29T10:41:39;26.20;72.40
10314;DHT22;5202;49.138;10.090;2022-07-29T10:44:17;26.40;72.30
10314;DHT22;5202;49.138;10.090;2022-07-29T10:47:06;26.90;73.00
10314;DHT22;5202;49.138;10.090;2022-07-29T10:49:37;26.90;71.20
10314;DHT22;5202;49.138;10.090;2022-07-29T10:52:07;26.80;71.10
10314;DHT22;5202;49.138;10.090;2022-07-29T10:54:39;26.70;72.00
10314;DHT22;5202;49.138;10.090;2022-07-29T10:57:14;26.70;71.90
10314;DHT22;5202;49.138;10.090;2022-07-29T10:59:48;26.80;72.20
10314;DHT22;5202;49.138;10.090;2022-07-29T11:02:51;27.00;72.80
10314;DHT22;5202;49.138;10.090;2022-07-29T11:05:24;26.90;71.80
10314;DHT22;5202;49.138;10.090;2022-07-29T11:08:22;26.80;71.80
10314;DHT22;5202;49.138;10.090;2022-07-29T11:14:13;27.00;72.30
10314;DHT22;5202;49.138;10.090;2022-07-29T11:17:02;27.10;72.00
10314;DHT22;5202;49.138;10.090;2022-07-29T11:19:33;27.50;72.90
10314;DHT22;5202;49.138;10.090;2022-07-29T11:22:09;27.70;70.30
10314;DHT22;5202;49.138;10.090;2022-07-29T11:24:42;27.90;70.10
10314;DHT22;5202;49.138;10.090;2022-07-29T11:27:17;27.90;68.80
10314;DHT22;5202;49.138;10.090;2022-07-29T11:30:08;27.80;69.30
10314;DHT22;5202;49.138;10.090;2022-07-29T11:32:41;27.90;69.90
10314;DHT22;5202;49.138;10.090;2022-07-29T11:35:17;27.90;69.20
10314;DHT22;5202;49.138;10.090;2022-07-29T11:38:26;27.90;69.80
10314;DHT22;5202;49.138;10.090;2022-07-29T11:41:20;27.80;69.20
10314;DHT22;5202;49.138;10.090;2022-07-29T11:43:54;27.80;69.70
10314;DHT22;5202;49.138;10.090;2022-07-29T11:46:46;27.90;69.50
10314;DHT22;5202;49.138;10.090;2022-07-29T11:49:19;28.10;68.10
10314;DHT22;5202;49.138;10.090;2022-07-29T11:51:59;28.20;68.30
10314;DHT22;5202;49.138;10.090;2022-07-29T11:54:33;27.90;66.30
10314;DHT22;5202;49.138;10.090;2022-07-29T11:57:22;28.00;66.90
10314;DHT22;5202;49.138;10.090;2022-07-29T12:00:05;27.80;65.10
10314;DHT22;5202;49.138;10.090;2022-07-29T12:03:23;27.60;65.30
10314;DHT22;5202;49.138;10.090;2022-07-29T12:06:10;27.30;65.60
10314;DHT22;5202;49.138;10.090;2022-07-29T12:08:41;27.20;64.80
10314;DHT22;5202;49.138;10.090;2022-07-29T12:11:19;27.00;64.90
10314;DHT22;5202;49.138;10.090;2022-07-29T12:13:50;26.90;65.70
10314;DHT22;5202;49.138;10.090;2022-07-29T12:16:19;26.80;67.20
10314;DHT22;5202;49.138;10.090;2022-07-29T12:18:56;26.80;67.70
10314;DHT22;5202;49.138;10.090;2022-07-29T12:21:26;26.70;68.40
10314;DHT22;5202;49.138;10.090;2022-07-29T12:23:56;26.50;69.10
10314;DHT22;5202;49.138;10.090;2022-07-29T12:26:36;26.50;68.90
10314;DHT22;5202;49.138;10.090;2022-07-29T12:29:06;26.40;68.50
10314;DHT22;5202;49.138;10.090;2022-07-29T12:31:41;26.40;69.20
10314;DHT22;5202;49.138;10.090;2022-07-29T12:34:15;26.20;70.00
10314;DHT22;5202;49.138;10.090;2022-07-29T12:36:43;26.20;70.70
10314;DHT22;5202;49.138;10.090;2022-07-29T12:39:12;26.20;70.50
10314;DHT22;5202;49.138;10.090;2022-07-29T12:41:42;26.30;70.90
10314;DHT22;5202;49.138;10.090;2022-07-29T12:44:11;26.40;71.00
10314;DHT22;5202;49.138;10.090;2022-07-29T12:46:39;26.30;70.80
10314;DHT22;5202;49.138;10.090;2022-07-29T12:49:08;26.30;71.20
10314;DHT22;5202;49.138;10.090;2022-07-29T12:51:39;26.40;70.90
10314;DHT22;5202;49.138;10.090;2022-07-29T12:54:09;26.30;71.70
10314;DHT22;5202;49.138;10.090;2022-07-29T12:56:42;26.30;72.10
10314;DHT22;5202;49.138;10.090;2022-07-29T12:59:13;26.10;72.30
10314;DHT22;5202;49.138;10.090;2022-07-29T13:01:43;26.00;72.60
10314;DHT22;5202;49.138;10.090;2022-07-29T13:04:24;26.10;73.50
10314;DHT22;5202;49.138;10.090;2022-07-29T13:06:58;26.40;73.50
10314;DHT22;5202;49.138;10.090;2022-07-29T13:09:37;26.50;73.40
10314;DHT22;5202;49.138;10.090;2022-07-29T13:12:10;26.80;73.00
10314;DHT22;5202;49.138;10.090;2022-07-29T13:14:40;27.00;74.10
10314;DHT22;5202;49.138;10.090;2022-07-29T13:17:11;27.20;73.80
10314;DHT22;5202;49.138;10.090;2022-07-29T13:19:42;27.20;73.60
10314;DHT22;5202;49.138;10.090;2022-07-29T13:22:13;27.10;72.80
10314;DHT22;5202;49.138;10.090;2022-07-29T13:24:49;26.90;72.60
10314;DHT22;5202;49.138;10.090;2022-07-29T13:27:22;27.00;70.80
10314;DHT22;5202;49.138;10.090;2022-07-29T13:29:51;26.90;71.80
10314;DHT22;5202;49.138;10.090;2022-07-29T13:32:23;27.10;70.70
10314;DHT22;5202;49.138;10.090;2022-07-29T13:34:54;27.10;70.50
10314;DHT22;5202;49.138;10.090;2022-07-29T13:37:23;27.20;70.20
10314;DHT22;5202;49.138;10.090;2022-07-29T13:39:53;27.20;70.60
10314;DHT22;5202;49.138;10.090;2022-07-29T13:42:24;27.10;70.70
10314;DHT22;5202;49.138;10.090;2022-07-29T13:44:53;27.00;70.80
10314;DHT22;5202;49.138;10.090;2022-07-29T13:47:22;27.00;70.30
10314;DHT22;5202;49.138;10.090;2022-07-29T13:49:59;27.00;71.30
10314;DHT22;5202;49.138;10.090;2022-07-29T13:52:53;26.80;71.20
10314;DHT22;5202;49.138;10.090;2022-07-29T13:55:21;26.60;72.10
10314;DHT22;5202;49.138;10.090;2022-07-29T13:57:51;26.70;72.00
10314;DHT22;5202;49.138;10.090;2022-07-29T14:00:19;26.80;71.40
10314;DHT22;5202;49.138;10.090;2022-07-29T14:02:48;26.80;72.20
10314;DHT22;5202;49.138;10.090;2022-07-29T14:05:17;26.80;72.30
10314;DHT22;5202;49.138;10.090;2022-07-29T14:07:46;26.80;72.10
10314;DHT22;5202;49.138;10.090;2022-07-29T14:10:14;26.90;71.00
10314;DHT22;5202;49.138;10.090;2022-07-29T14:12:46;26.90;68.90
10314;DHT22;5202;49.138;10.090;2022-07-29T14:15:15;27.10;68.20
10314;DHT22;5202;49.138;10.090;2022-07-29T14:17:44;27.10;68.00
10314;DHT22;5202;49.138;10.090;2022-07-29T14:20:12;27.20;68.60
10314;DHT22;5202;49.138;10.090;2022-07-29T14:22:43;27.10;67.90
10314;DHT22;5202;49.138;10.090;2022-07-29T14:25:11;27.10;66.80
10314;DHT22;5202;49.138;10.090;2022-07-29T14:27:41;27.00;65.70
10314;DHT22;5202;49.138;10.090;2022-07-29T14:30:11;26.80;65.10
10314;DHT22;5202;49.138;10.090;2022-07-29T14:32:41;26.80;63.50
10314;DHT22;5202;49.138;10.090;2022-07-29T14:35:10;26.60;60.80
10314;DHT22;5202;49.138;10.090;2022-07-29T14:37:38;26.50;60.60
10314;DHT22;5202;49.138;10.090;2022-07-29T14:40:08;26.50;60.70
10314;DHT22;5202;49.138;10.090;2022-07-29T14:42:37;26.50;61.20
10314;DHT22;5202;49.138;10.090;2022-07-29T14:45:08;26.40;60.10
10314;DHT22;5202;49.138;10.090;2022-07-29T14:47:37;26.30;59.20
10314;DHT22;5202;49.138;10.090;2022-07-29T14:50:08;26.20;58.90
10314;DHT22;5202;49.138;10.090;2022-07-29T14:52:37;26.00;57.70
10314;DHT22;5202;49.138;10.090;2022-07-29T14:55:06;25.80;58.20
10314;DHT22;5202;49.138;10.090;2022-07-29T14:57:46;25.70;59.00
10314;DHT22;5202;49.138;10.090;2022-07-29T15:00:15;25.60;59.60
10314;DHT22;5202;49.138;10.090;2022-07-29T15:02:44;25.60;60.30
10314;DHT22;5202;49.138;10.090;2022-07-29T15:05:29;25.50;60.30
10314;DHT22;5202;49.138;10.090;2022-07-29T15:07:58;25.40;61.40
10314;DHT22;5202;49.138;10.090;2022-07-29T15:10:27;25.30;62.00
10314;DHT22;5202;49.138;10.090;2022-07-29T15:12:55;25.30;62.50
10314;DHT22;5202;49.138;10.090;2022-07-29T15:15:24;25.20;62.20
10314;DHT22;5202;49.138;10.090;2022-07-29T15:17:53;25.10;62.80
10314;DHT22;5202;49.138;10.090;2022-07-29T15:20:21;25.20;63.30
10314;DHT22;5202;49.138;10.090;2022-07-29T15:22:53;25.20;63.60
10314;DHT22;5202;49.138;10.090;2022-07-29T15:25:23;25.30;64.20
10314;DHT22;5202;49.138;10.090;2022-07-29T15:27:54;25.30;64.50
10314;DHT22;5202;49.138;10.090;2022-07-29T15:30:27;25.10;71.20
10314;DHT22;5202;49.138;10.090;2022-07-29T15:33:00;24.60;74.90
10314;DHT22;5202;49.138;10.090;2022-07-29T15:35:29;24.20;76.10
10314;DHT22;5202;49.138;10.090;2022-07-29T15:37:59;24.00;76.60
10314;DHT22;5202;49.138;10.090;2022-07-29T15:40:28;23.90;77.60
10314;DHT22;5202;49.138;10.090;2022-07-29T15:42:56;24.10;78.30
10314;DHT22;5202;49.138;10.090;2022-07-29T15:45:27;24.10;78.30
10314;DHT22;5202;49.138;10.090;2022-07-29T15:47:58;24.10;78.70
10314;DHT22;5202;49.138;10.090;2022-07-29T15:50:27;24.00;79.00
10314;DHT22;5202;49.138;10.090;2022-07-29T15:52:55;24.00;79.00
10314;DHT22;5202;49.138;10.090;2022-07-29T15:55:25;24.10;78.40
10314;DHT22;5202;49.138;10.090;2022-07-29T15:57:53;24.20;78.20
10314;DHT22;5202;49.138;10.090;2022-07-29T16:00:26;24.30;78.60
10314;DHT22;5202;49.138;10.090;2022-07-29T16:02:55;24.40;78.30
10314;DHT22;5202;49.138;10.090;2022-07-29T16:06:01;24.40;77.90